Webcam & Weather

This webcam image will automatically refresh every 15 seconds.


METAR and TAF for EGLL Heathrow (12 Nautical Miles East of White Waltham)

Available data for EGLL from the past hour
LONDON/HEATHROW
Metar
EGLL 191020Z 20012KT 170V230 3500 +RA SCT014CB BKN020 OVC030 16/15 Q1012 TEMPO 8000 RA BKN014

10:20 UTC

Wind: 200° 12kt

Visibility: 3500 m

Sky: SCT 1400 ft

Temp: 16 deg C / 60.8 deg F

Dewpoint: 15 deg C / 59 deg F

Pressure: 1012 hPa

TAF
TAF AMD EGLL 191018Z 1910/2012 20014KT 9999 SCT035 TEMPO 1910/1911 4000 +RA BKN012 BECMG 1911/1914 BKN012 PROB40 TEMPO 1911/1920 4000 RADZ BKN008 PROB40 TEMPO 1920/2004 3000 +RA BKN006 BECMG 2004/2007 SCT025 PROB30 TEMPO 2004/2007 6000 SHRA BKN008 PROB30 TEMPO 2010/2012 3000 +SHRA TSRA

Play 24 hour timelapse | Play 30 day timelapse

Comments are closed.